TVF52LG LFPO-LDDU
Flight info
| Callsign | TVF52LG |
|---|---|
| Flight time | N/A |
| Altitude | 23000 |
| Route | BUBLI DCT LUVAL/N0442F350 DCT BEGAR DCT TRA DCT SUXAN DCT ROSKA DCT ROTAR DCT SIPAL |
| Aircraft | B738/M-SDFGHIJ1RWXY/LB1 |
Departure
| Time | 2026-04-30 14:13 |
|---|---|
| Airport | Paris-Orly Airport (LFPO) |
Arrival
| Time | N/A |
|---|---|
| Airport | Dubrovnik Ruđer Bošković Airport (LDDU) |
| Time | Latitude | Longitude | Altitude | Speed | Heading |
|---|---|---|---|---|---|
| 2026-04-30 14:00 | 48.72630 | 2.36387 | 298 ft | 0 kts | 344° |
| 2026-04-30 14:05 | 48.72625 | 2.36389 | 298 ft | 4 kts | 344° |
| 2026-04-30 14:05 | 48.72599 | 2.36401 | 303 ft | 4 kts | 341° |
| 2026-04-30 14:05 | 48.72574 | 2.36416 | 304 ft | 4 kts | 333° |
| 2026-04-30 14:06 | 48.72553 | 2.36438 | 304 ft | 4 kts | 301° |
| 2026-04-30 14:06 | 48.72548 | 2.36459 | 308 ft | 1 kts | 255° |
| 2026-04-30 14:08 | 48.72548 | 2.36458 | 287 ft | 0 kts | 253° |
| 2026-04-30 14:09 | 48.72544 | 2.36435 | 289 ft | 5 kts | 254° |
| 2026-04-30 14:09 | 48.72528 | 2.36347 | 289 ft | 12 kts | 254° |
| 2026-04-30 14:09 | 48.72449 | 2.36230 | 287 ft | 10 kts | 190° |
| 2026-04-30 14:10 | 48.72403 | 2.36123 | 288 ft | 16 kts | 255° |
| 2026-04-30 14:10 | 48.72369 | 2.35938 | 289 ft | 21 kts | 256° |
| 2026-04-30 14:10 | 48.72341 | 2.35714 | 290 ft | 22 kts | 246° |
| 2026-04-30 14:10 | 48.72264 | 2.35611 | 289 ft | 15 kts | 184° |
| 2026-04-30 14:11 | 48.72169 | 2.35624 | 288 ft | 13 kts | 166° |
| 2026-04-30 14:11 | 48.72084 | 2.35664 | 292 ft | 13 kts | 145° |
| 2026-04-30 14:11 | 48.72025 | 2.35761 | 288 ft | 12 kts | 126° |
| 2026-04-30 14:11 | 48.71979 | 2.35870 | 290 ft | 12 kts | 133° |
| 2026-04-30 14:12 | 48.71953 | 2.35927 | 288 ft | 5 kts | 97° |
| 2026-04-30 14:12 | 48.71964 | 2.35983 | 287 ft | 7 kts | 73° |
| 2026-04-30 14:12 | 48.72024 | 2.36301 | 288 ft | 64 kts | 74° |
| 2026-04-30 14:12 | 48.72131 | 2.36882 | 292 ft | 105 kts | 75° |
| 2026-04-30 14:13 | 48.72472 | 2.38701 | 507 ft | 150 kts | 75° |
| 2026-04-30 14:13 | 48.72766 | 2.40274 | 1043 ft | 163 kts | 78° |
| 2026-04-30 14:13 | 48.73062 | 2.41921 | 1838 ft | 157 kts | 78° |
| 2026-04-30 14:13 | 48.73351 | 2.43564 | 2412 ft | 171 kts | 79° |
| 2026-04-30 14:14 | 48.73648 | 2.45398 | 2830 ft | 189 kts | 78° |
| 2026-04-30 14:14 | 48.74015 | 2.47421 | 3049 ft | 209 kts | 79° |
| 2026-04-30 14:14 | 48.74152 | 2.49677 | 3363 ft | 219 kts | 90° |
| 2026-04-30 14:14 | 48.74197 | 2.52034 | 3729 ft | 235 kts | 91° |
| 2026-04-30 14:15 | 48.74251 | 2.54658 | 3933 ft | 260 kts | 90° |
| 2026-04-30 14:15 | 48.74401 | 2.57408 | 4631 ft | 263 kts | 84° |
| 2026-04-30 14:15 | 48.74678 | 2.60120 | 5490 ft | 259 kts | 87° |
| 2026-04-30 14:15 | 48.74919 | 2.62848 | 6111 ft | 265 kts | 86° |
| 2026-04-30 14:16 | 48.75148 | 2.65661 | 6677 ft | 273 kts | 87° |
| 2026-04-30 14:16 | 48.75373 | 2.68530 | 7310 ft | 275 kts | 87° |
| 2026-04-30 14:16 | 48.75593 | 2.71389 | 8084 ft | 273 kts | 86° |
| 2026-04-30 14:16 | 48.75806 | 2.74285 | 8658 ft | 279 kts | 87° |
| 2026-04-30 14:17 | 48.76004 | 2.77232 | 9278 ft | 283 kts | 90° |
| 2026-04-30 14:17 | 48.76192 | 2.80237 | 9845 ft | 289 kts | 85° |
| 2026-04-30 14:17 | 48.76476 | 2.83229 | 10618 ft | 286 kts | 84° |
| 2026-04-30 14:17 | 48.76733 | 2.86297 | 10894 ft | 303 kts | 85° |
| 2026-04-30 14:18 | 48.76985 | 2.89576 | 11063 ft | 322 kts | 86° |
| 2026-04-30 14:18 | 48.77244 | 2.93011 | 11419 ft | 333 kts | 85° |
| 2026-04-30 14:18 | 48.77826 | 3.00061 | 12691 ft | 338 kts | 82° |
| 2026-04-30 14:19 | 48.78674 | 3.07086 | 14149 ft | 339 kts | 81° |
| 2026-04-30 14:19 | 48.79110 | 3.10588 | 14835 ft | 340 kts | 81° |
| 2026-04-30 14:19 | 48.79545 | 3.14154 | 15270 ft | 349 kts | 82° |
| 2026-04-30 14:20 | 48.79982 | 3.17773 | 15950 ft | 348 kts | 82° |
| 2026-04-30 14:20 | 48.80414 | 3.21387 | 16635 ft | 350 kts | 82° |
| 2026-04-30 14:20 | 48.81287 | 3.28766 | 17775 ft | 357 kts | 82° |
| 2026-04-30 14:21 | 48.81725 | 3.32504 | 18330 ft | 363 kts | 82° |
| 2026-04-30 14:21 | 48.82160 | 3.36301 | 18810 ft | 366 kts | 84° |
| 2026-04-30 14:21 | 48.81980 | 3.44018 | 19774 ft | 371 kts | 97° |
| 2026-04-30 14:22 | 48.81693 | 3.47906 | 20347 ft | 370 kts | 97° |
| 2026-04-30 14:22 | 48.81136 | 3.55694 | 21397 ft | 375 kts | 97° |
| 2026-04-30 14:22 | 48.80868 | 3.59649 | 21861 ft | 378 kts | 96° |
| 2026-04-30 14:23 | 48.80346 | 3.67606 | 22901 ft | 381 kts | 96° |
| 2026-04-30 14:23 | 48.79823 | 3.75653 | 23828 ft | 386 kts | 96° |
| 2026-04-30 14:24 | 48.79291 | 3.83789 | 24589 ft | 390 kts | 96° |
| 2026-04-30 14:24 | 48.79020 | 3.87897 | 24949 ft | 393 kts | 96° |
| 2026-04-30 14:25 | 48.78470 | 3.96183 | 25657 ft | 397 kts | 96° |
| 2026-04-30 14:25 | 48.77921 | 4.04380 | 26339 ft | 402 kts | 96° |
| 2026-04-30 14:26 | 48.77293 | 4.12904 | 26995 ft | 406 kts | 102° |
| 2026-04-30 14:26 | 48.76352 | 4.16880 | 27288 ft | 410 kts | 118° |
| 2026-04-30 14:26 | 48.73092 | 4.24006 | 27962 ft | 414 kts | 125° |
| 2026-04-30 14:27 | 48.71392 | 4.27532 | 28256 ft | 416 kts | 125° |
| 2026-04-30 14:27 | 48.69684 | 4.31084 | 28548 ft | 418 kts | 125° |
| 2026-04-30 14:27 | 48.67976 | 4.34660 | 28865 ft | 420 kts | 125° |
| 2026-04-30 14:28 | 48.64550 | 4.41886 | 29399 ft | 425 kts | 124° |
| 2026-04-30 14:28 | 48.62821 | 4.45543 | 29576 ft | 429 kts | 124° |
| 2026-04-30 14:28 | 48.61095 | 4.49193 | 30035 ft | 427 kts | 124° |
| 2026-04-30 14:28 | 48.59361 | 4.52854 | 30261 ft | 429 kts | 124° |
| 2026-04-30 14:29 | 48.55871 | 4.60215 | 30654 ft | 433 kts | 125° |
| 2026-04-30 14:29 | 48.52941 | 4.66375 | 31026 ft | 435 kts | 125° |
| 2026-04-30 14:30 | 48.47092 | 4.78631 | 32123 ft | 431 kts | 125° |
| 2026-04-30 14:31 | 48.43582 | 4.85960 | 32631 ft | 431 kts | 125° |
| 2026-04-30 14:31 | 48.40090 | 4.93234 | 33307 ft | 427 kts | 125° |
| 2026-04-30 14:31 | 48.38352 | 4.96846 | 33581 ft | 426 kts | 124° |
| 2026-04-30 14:32 | 48.34943 | 5.03927 | 34122 ft | 424 kts | 124° |
| 2026-04-30 14:32 | 48.33214 | 5.07508 | 34367 ft | 423 kts | 125° |
| 2026-04-30 14:32 | 48.31483 | 5.11091 | 34532 ft | 424 kts | 123° |
| 2026-04-30 14:33 | 48.29972 | 5.14898 | 34648 ft | 425 kts | 115° |
| 2026-04-30 14:33 | 48.28134 | 5.23267 | 35054 ft | 422 kts | 102° |
| 2026-04-30 14:33 | 48.27513 | 5.27572 | 35227 ft | 423 kts | 102° |
| 2026-04-30 14:34 | 48.27101 | 5.30442 | 35330 ft | 423 kts | 102° |
| 2026-04-30 14:34 | 48.26481 | 5.34741 | 35523 ft | 423 kts | 102° |
| 2026-04-30 14:34 | 48.25851 | 5.39056 | 35671 ft | 424 kts | 102° |
| 2026-04-30 14:34 | 48.25213 | 5.43376 | 35844 ft | 423 kts | 102° |
| 2026-04-30 14:35 | 48.23928 | 5.51965 | 36219 ft | 423 kts | 102° |
| 2026-04-30 14:35 | 48.23278 | 5.56274 | 36323 ft | 424 kts | 102° |
| 2026-04-30 14:35 | 48.22629 | 5.60568 | 36604 ft | 421 kts | 102° |
| 2026-04-30 14:36 | 48.21980 | 5.64841 | 36777 ft | 421 kts | 103° |
| 2026-04-30 14:36 | 48.21327 | 5.69125 | 36891 ft | 422 kts | 102° |
| 2026-04-30 14:36 | 48.20673 | 5.73409 | 37103 ft | 420 kts | 102° |
| 2026-04-30 14:36 | 48.20022 | 5.77667 | 37321 ft | 419 kts | 102° |
| 2026-04-30 14:37 | 48.19369 | 5.81928 | 37417 ft | 420 kts | 103° |
| 2026-04-30 14:37 | 48.18714 | 5.86191 | 37596 ft | 419 kts | 103° |
| 2026-04-30 14:37 | 48.18059 | 5.90443 | 37766 ft | 419 kts | 102° |
| 2026-04-30 14:37 | 48.17401 | 5.94692 | 37875 ft | 420 kts | 103° |
| 2026-04-30 14:38 | 48.16739 | 5.98955 | 37998 ft | 420 kts | 102° |
| 2026-04-30 14:38 | 48.16101 | 6.03057 | 38153 ft | 419 kts | 103° |
| 2026-04-30 14:38 | 48.15440 | 6.07311 | 38225 ft | 420 kts | 102° |
| 2026-04-30 14:39 | 48.14106 | 6.15849 | 38352 ft | 422 kts | 102° |
| 2026-04-30 14:39 | 48.12766 | 6.24372 | 38449 ft | 425 kts | 103° |
| 2026-04-30 14:40 | 48.11403 | 6.32992 | 38565 ft | 427 kts | 103° |
| 2026-04-30 14:40 | 48.10718 | 6.37316 | 38593 ft | 428 kts | 103° |
| 2026-04-30 14:40 | 48.09279 | 6.45988 | 38691 ft | 431 kts | 102° |
| 2026-04-30 14:41 | 48.07891 | 6.54716 | 38814 ft | 432 kts | 102° |
| 2026-04-30 14:41 | 48.06513 | 6.63486 | 38911 ft | 434 kts | 103° |
| 2026-04-30 14:42 | 48.05104 | 6.72272 | 39016 ft | 435 kts | 103° |
| 2026-04-30 14:42 | 48.03697 | 6.80935 | 39158 ft | 424 kts | 103° |
| 2026-04-30 14:43 | 48.02295 | 6.89495 | 39203 ft | 425 kts | 102° |
| 2026-04-30 14:43 | 48.00887 | 6.98084 | 39204 ft | 427 kts | 102° |
| 2026-04-30 14:44 | 47.99487 | 7.06551 | 39218 ft | 429 kts | 103° |
| 2026-04-30 14:44 | 47.98048 | 7.15214 | 39228 ft | 431 kts | 102° |
| 2026-04-30 14:45 | 47.96597 | 7.23918 | 39228 ft | 433 kts | 103° |
| 2026-04-30 14:45 | 47.95131 | 7.32661 | 39218 ft | 436 kts | 103° |
| 2026-04-30 14:46 | 47.93651 | 7.41453 | 39220 ft | 438 kts | 103° |
| 2026-04-30 14:46 | 47.92159 | 7.50288 | 39217 ft | 440 kts | 103° |
| 2026-04-30 14:47 | 47.90629 | 7.59138 | 39214 ft | 442 kts | 106° |
| 2026-04-30 14:47 | 47.88538 | 7.67781 | 39216 ft | 445 kts | 109° |
| 2026-04-30 14:48 | 47.86283 | 7.76374 | 39219 ft | 446 kts | 109° |
| 2026-04-30 14:48 | 47.84059 | 7.84997 | 39223 ft | 447 kts | 108° |
| 2026-04-30 14:49 | 47.81854 | 7.93654 | 39228 ft | 448 kts | 109° |
| 2026-04-30 14:49 | 47.79686 | 8.02177 | 39237 ft | 449 kts | 109° |
| 2026-04-30 14:50 | 47.76354 | 8.15197 | 39232 ft | 450 kts | 108° |
| 2026-04-30 14:51 | 47.73007 | 8.28208 | 39230 ft | 449 kts | 109° |
| 2026-04-30 14:52 | 47.69659 | 8.41092 | 39238 ft | 448 kts | 111° |
| 2026-04-30 14:52 | 47.66368 | 8.48944 | 39247 ft | 451 kts | 126° |
| 2026-04-30 14:52 | 47.64402 | 8.52565 | 39241 ft | 450 kts | 127° |
| 2026-04-30 14:53 | 47.58505 | 8.63342 | 39230 ft | 447 kts | 126° |
| 2026-04-30 14:54 | 47.50785 | 8.77654 | 39236 ft | 443 kts | 126° |
| 2026-04-30 14:55 | 47.45031 | 8.88320 | 39230 ft | 443 kts | 126° |
| 2026-04-30 14:56 | 47.37357 | 9.02479 | 39223 ft | 447 kts | 127° |
| 2026-04-30 14:57 | 47.31491 | 9.13251 | 39235 ft | 451 kts | 126° |
| 2026-04-30 14:58 | 47.23572 | 9.27724 | 39228 ft | 456 kts | 126° |
| 2026-04-30 14:58 | 47.17576 | 9.38632 | 39220 ft | 458 kts | 127° |
| 2026-04-30 15:00 | 47.07495 | 9.56872 | 39220 ft | 461 kts | 127° |
| 2026-04-30 15:01 | 46.99392 | 9.71446 | 39201 ft | 461 kts | 127° |
| 2026-04-30 15:01 | 46.93319 | 9.82320 | 39199 ft | 459 kts | 127° |
| 2026-04-30 15:02 | 46.89281 | 9.89524 | 39204 ft | 457 kts | 127° |
| 2026-04-30 15:03 | 46.79335 | 10.07197 | 39207 ft | 455 kts | 127° |
| 2026-04-30 15:04 | 46.69190 | 10.25108 | 39216 ft | 461 kts | 128° |
| 2026-04-30 15:06 | 46.58959 | 10.43068 | 39221 ft | 465 kts | 128° |
| 2026-04-30 15:07 | 46.51025 | 10.57952 | 39229 ft | 468 kts | 124° |
| 2026-04-30 15:08 | 46.43380 | 10.73268 | 39228 ft | 469 kts | 124° |
| 2026-04-30 15:09 | 46.33702 | 10.92325 | 39262 ft | 470 kts | 124° |
| 2026-04-30 15:10 | 46.25986 | 11.07417 | 39260 ft | 469 kts | 124° |
| 2026-04-30 15:11 | 46.14356 | 11.30014 | 39242 ft | 466 kts | 124° |
| 2026-04-30 15:13 | 46.04684 | 11.48670 | 39263 ft | 463 kts | 125° |
| 2026-04-30 15:14 | 45.91144 | 11.74583 | 39274 ft | 465 kts | 125° |
| 2026-04-30 15:17 | 45.73436 | 12.08116 | 39284 ft | 476 kts | 125° |
| 2026-04-30 15:19 | 45.57404 | 12.38125 | 39259 ft | 472 kts | 126° |